sensor_id;sensor_type;location;lat;lon;timestamp;temperature;humidity
38500;DHT22;24269;51.894;4.622;2023-01-08T00:01:42;9.30;99.90
38500;DHT22;24269;51.894;4.622;2023-01-08T00:04:08;9.40;99.90
38500;DHT22;24269;51.894;4.622;2023-01-08T00:06:34;9.40;99.90
38500;DHT22;24269;51.894;4.622;2023-01-08T00:09:00;9.50;99.90
38500;DHT22;24269;51.894;4.622;2023-01-08T00:11:26;9.60;99.90
38500;DHT22;24269;51.894;4.622;2023-01-08T00:13:51;9.50;99.90
38500;DHT22;24269;51.894;4.622;2023-01-08T00:16:18;9.50;99.90
38500;DHT22;24269;51.894;4.622;2023-01-08T00:18:45;9.50;99.90
38500;DHT22;24269;51.894;4.622;2023-01-08T00:21:11;9.60;99.90
38500;DHT22;24269;51.894;4.622;2023-01-08T00:23:37;9.60;99.90
38500;DHT22;24269;51.894;4.622;2023-01-08T00:26:05;9.70;99.90
38500;DHT22;24269;51.894;4.622;2023-01-08T00:28:30;9.80;99.90
38500;DHT22;24269;51.894;4.622;2023-01-08T00:30:56;9.90;99.90
38500;DHT22;24269;51.894;4.622;2023-01-08T00:33:22;10.00;99.90
38500;DHT22;24269;51.894;4.622;2023-01-08T00:35:48;10.00;99.90
38500;DHT22;24269;51.894;4.622;2023-01-08T00:38:13;10.10;99.90
38500;DHT22;24269;51.894;4.622;2023-01-08T00:40:39;10.10;99.90
38500;DHT22;24269;51.894;4.622;2023-01-08T00:43:06;10.10;99.90
38500;DHT22;24269;51.894;4.622;2023-01-08T00:45:31;10.20;99.90
38500;DHT22;24269;51.894;4.622;2023-01-08T00:47:57;10.20;99.90
38500;DHT22;24269;51.894;4.622;2023-01-08T00:50:24;10.10;99.90
38500;DHT22;24269;51.894;4.622;2023-01-08T00:52:49;10.20;99.90
38500;DHT22;24269;51.894;4.622;2023-01-08T00:55:15;10.10;99.90
38500;DHT22;24269;51.894;4.622;2023-01-08T00:57:41;10.10;99.90
38500;DHT22;24269;51.894;4.622;2023-01-08T01:00:10;10.10;99.90
38500;DHT22;24269;51.894;4.622;2023-01-08T01:02:37;10.10;99.90
38500;DHT22;24269;51.894;4.622;2023-01-08T01:05:03;10.00;99.90
38500;DHT22;24269;51.894;4.622;2023-01-08T01:07:29;9.90;99.90
38500;DHT22;24269;51.894;4.622;2023-01-08T01:09:55;9.90;99.90
38500;DHT22;24269;51.894;4.622;2023-01-08T01:12:20;9.90;99.90
38500;DHT22;24269;51.894;4.622;2023-01-08T01:14:46;9.80;99.90
38500;DHT22;24269;51.894;4.622;2023-01-08T01:17:12;9.70;99.90
38500;DHT22;24269;51.894;4.622;2023-01-08T01:19:39;9.70;99.90
38500;DHT22;24269;51.894;4.622;2023-01-08T01:22:05;9.70;99.90
38500;DHT22;24269;51.894;4.622;2023-01-08T01:24:32;9.70;99.90
38500;DHT22;24269;51.894;4.622;2023-01-08T01:26:57;9.70;99.90
38500;DHT22;24269;51.894;4.622;2023-01-08T01:29:24;9.60;99.90
38500;DHT22;24269;51.894;4.622;2023-01-08T01:31:49;9.60;99.90
38500;DHT22;24269;51.894;4.622;2023-01-08T01:34:15;9.60;99.90
38500;DHT22;24269;51.894;4.622;2023-01-08T01:36:40;9.60;99.90
38500;DHT22;24269;51.894;4.622;2023-01-08T01:39:06;9.60;99.90
38500;DHT22;24269;51.894;4.622;2023-01-08T01:41:43;9.60;99.90
38500;DHT22;24269;51.894;4.622;2023-01-08T01:44:41;9.60;99.90
38500;DHT22;24269;51.894;4.622;2023-01-08T01:49:35;9.60;99.90
38500;DHT22;24269;51.894;4.622;2023-01-08T01:52:04;9.60;99.90
38500;DHT22;24269;51.894;4.622;2023-01-08T01:54:31;9.60;99.90
38500;DHT22;24269;51.894;4.622;2023-01-08T01:56:58;9.60;99.90
38500;DHT22;24269;51.894;4.622;2023-01-08T01:59:24;9.60;99.90
38500;DHT22;24269;51.894;4.622;2023-01-08T02:01:50;9.60;99.90
38500;DHT22;24269;51.894;4.622;2023-01-08T02:04:16;9.70;99.90
38500;DHT22;24269;51.894;4.622;2023-01-08T02:07:17;9.70;99.90
38500;DHT22;24269;51.894;4.622;2023-01-08T02:09:57;9.70;99.90
38500;DHT22;24269;51.894;4.622;2023-01-08T02:12:42;9.70;99.90
38500;DHT22;24269;51.894;4.622;2023-01-08T02:15:20;9.60;99.90
38500;DHT22;24269;51.894;4.622;2023-01-08T02:17:54;9.60;99.90
38500;DHT22;24269;51.894;4.622;2023-01-08T02:20:30;9.70;99.90
38500;DHT22;24269;51.894;4.622;2023-01-08T02:28:20;9.80;99.90
38500;DHT22;24269;51.894;4.622;2023-01-08T02:30:47;9.80;99.90
38500;DHT22;24269;51.894;4.622;2023-01-08T02:33:14;9.70;99.90
38500;DHT22;24269;51.894;4.622;2023-01-08T02:35:44;9.70;99.90
38500;DHT22;24269;51.894;4.622;2023-01-08T02:38:15;9.70;99.90
38500;DHT22;24269;51.894;4.622;2023-01-08T02:41:04;9.60;99.90
38500;DHT22;24269;51.894;4.622;2023-01-08T02:43:47;9.70;99.90
38500;DHT22;24269;51.894;4.622;2023-01-08T02:46:18;9.60;99.90
38500;DHT22;24269;51.894;4.622;2023-01-08T02:48:49;9.60;99.90
38500;DHT22;24269;51.894;4.622;2023-01-08T02:51:29;9.60;99.90
38500;DHT22;24269;51.894;4.622;2023-01-08T02:54:00;9.50;99.90
38500;DHT22;24269;51.894;4.622;2023-01-08T02:56:30;9.50;99.90
38500;DHT22;24269;51.894;4.622;2023-01-08T02:58:57;9.60;99.90
38500;DHT22;24269;51.894;4.622;2023-01-08T03:01:25;9.60;99.90
38500;DHT22;24269;51.894;4.622;2023-01-08T03:04:13;9.60;99.90
38500;DHT22;24269;51.894;4.622;2023-01-08T03:06:39;9.60;99.90
38500;DHT22;24269;51.894;4.622;2023-01-08T03:09:05;9.50;99.90
38500;DHT22;24269;51.894;4.622;2023-01-08T03:11:40;9.50;99.90
38500;DHT22;24269;51.894;4.622;2023-01-08T03:14:31;9.50;99.90
38500;DHT22;24269;51.894;4.622;2023-01-08T03:17:05;9.50;99.90
38500;DHT22;24269;51.894;4.622;2023-01-08T03:19:42;9.50;99.90
38500;DHT22;24269;51.894;4.622;2023-01-08T03:22:12;9.50;99.90
38500;DHT22;24269;51.894;4.622;2023-01-08T03:24:41;9.50;99.90
38500;DHT22;24269;51.894;4.622;2023-01-08T03:27:11;9.50;99.90
38500;DHT22;24269;51.894;4.622;2023-01-08T03:29:38;9.50;99.90
38500;DHT22;24269;51.894;4.622;2023-01-08T03:32:08;9.50;99.90
38500;DHT22;24269;51.894;4.622;2023-01-08T03:34:37;9.50;99.90
38500;DHT22;24269;51.894;4.622;2023-01-08T03:37:05;9.50;99.90
38500;DHT22;24269;51.894;4.622;2023-01-08T03:39:48;9.50;99.90
38500;DHT22;24269;51.894;4.622;2023-01-08T03:42:18;9.40;99.90
38500;DHT22;24269;51.894;4.622;2023-01-08T03:44:45;9.50;99.90
38500;DHT22;24269;51.894;4.622;2023-01-08T03:47:11;9.50;99.90
38500;DHT22;24269;51.894;4.622;2023-01-08T03:49:38;9.60;99.90
38500;DHT22;24269;51.894;4.622;2023-01-08T03:52:05;9.70;99.90
38500;DHT22;24269;51.894;4.622;2023-01-08T03:54:33;9.70;99.90
38500;DHT22;24269;51.894;4.622;2023-01-08T03:56:59;9.70;99.90
38500;DHT22;24269;51.894;4.622;2023-01-08T03:59:24;9.70;99.90
38500;DHT22;24269;51.894;4.622;2023-01-08T04:01:50;9.70;99.90
38500;DHT22;24269;51.894;4.622;2023-01-08T04:04:16;9.60;99.90
38500;DHT22;24269;51.894;4.622;2023-01-08T04:06:42;9.60;99.90
38500;DHT22;24269;51.894;4.622;2023-01-08T04:09:08;9.60;99.90
38500;DHT22;24269;51.894;4.622;2023-01-08T04:11:33;9.60;99.90
38500;DHT22;24269;51.894;4.622;2023-01-08T04:13:59;9.60;99.90
38500;DHT22;24269;51.894;4.622;2023-01-08T04:16:25;9.60;99.90
38500;DHT22;24269;51.894;4.622;2023-01-08T04:18:50;9.50;99.90
38500;DHT22;24269;51.894;4.622;2023-01-08T04:21:16;9.50;99.90
38500;DHT22;24269;51.894;4.622;2023-01-08T04:23:42;9.40;99.90
38500;DHT22;24269;51.894;4.622;2023-01-08T04:26:08;9.40;99.90
38500;DHT22;24269;51.894;4.622;2023-01-08T04:28:34;9.30;99.90
38500;DHT22;24269;51.894;4.622;2023-01-08T04:31:07;9.30;99.90
38500;DHT22;24269;51.894;4.622;2023-01-08T04:33:33;9.20;99.90
38500;DHT22;24269;51.894;4.622;2023-01-08T04:35:59;9.20;99.90
38500;DHT22;24269;51.894;4.622;2023-01-08T04:38:25;9.10;99.90
38500;DHT22;24269;51.894;4.622;2023-01-08T04:40:58;9.00;99.90
38500;DHT22;24269;51.894;4.622;2023-01-08T04:43:24;9.00;99.90
38500;DHT22;24269;51.894;4.622;2023-01-08T04:45:50;9.00;99.90
38500;DHT22;24269;51.894;4.622;2023-01-08T04:48:16;9.00;99.90
38500;DHT22;24269;51.894;4.622;2023-01-08T04:50:42;8.90;99.90
38500;DHT22;24269;51.894;4.622;2023-01-08T04:53:08;8.90;99.90
38500;DHT22;24269;51.894;4.622;2023-01-08T04:55:33;8.80;99.90
38500;DHT22;24269;51.894;4.622;2023-01-08T04:57:59;8.80;99.90
38500;DHT22;24269;51.894;4.622;2023-01-08T05:00:24;8.80;99.90
38500;DHT22;24269;51.894;4.622;2023-01-08T05:02:50;8.80;99.90
38500;DHT22;24269;51.894;4.622;2023-01-08T05:05:16;8.70;99.90
38500;DHT22;24269;51.894;4.622;2023-01-08T05:07:41;8.70;99.90
38500;DHT22;24269;51.894;4.622;2023-01-08T05:10:07;8.70;99.90
38500;DHT22;24269;51.894;4.622;2023-01-08T05:12:33;8.70;99.90
38500;DHT22;24269;51.894;4.622;2023-01-08T05:14:59;8.60;99.90
38500;DHT22;24269;51.894;4.622;2023-01-08T05:17:24;8.50;99.90
38500;DHT22;24269;51.894;4.622;2023-01-08T05:19:50;8.60;99.90
38500;DHT22;24269;51.894;4.622;2023-01-08T05:22:15;8.60;99.90
38500;DHT22;24269;51.894;4.622;2023-01-08T05:24:41;8.70;99.90
38500;DHT22;24269;51.894;4.622;2023-01-08T05:27:06;8.60;99.90
38500;DHT22;24269;51.894;4.622;2023-01-08T05:29:32;8.60;99.90
38500;DHT22;24269;51.894;4.622;2023-01-08T05:31:58;8.50;99.90
38500;DHT22;24269;51.894;4.622;2023-01-08T05:34:23;8.40;99.90
38500;DHT22;24269;51.894;4.622;2023-01-08T05:36:49;8.50;99.90
38500;DHT22;24269;51.894;4.622;2023-01-08T05:39:14;8.50;99.90
38500;DHT22;24269;51.894;4.622;2023-01-08T05:41:40;8.50;99.90
38500;DHT22;24269;51.894;4.622;2023-01-08T05:44:06;8.50;99.90
38500;DHT22;24269;51.894;4.622;2023-01-08T05:46:31;8.40;99.90
38500;DHT22;24269;51.894;4.622;2023-01-08T05:48:57;8.50;99.90
38500;DHT22;24269;51.894;4.622;2023-01-08T05:51:22;8.40;99.90
38500;DHT22;24269;51.894;4.622;2023-01-08T05:53:48;8.50;99.90
38500;DHT22;24269;51.894;4.622;2023-01-08T05:56:14;8.50;99.90
38500;DHT22;24269;51.894;4.622;2023-01-08T05:58:39;8.50;99.90
38500;DHT22;24269;51.894;4.622;2023-01-08T06:01:11;8.50;99.90
38500;DHT22;24269;51.894;4.622;2023-01-08T06:03:37;8.50;99.90
38500;DHT22;24269;51.894;4.622;2023-01-08T06:06:05;8.60;99.90
38500;DHT22;24269;51.894;4.622;2023-01-08T06:08:32;8.60;99.90
38500;DHT22;24269;51.894;4.622;2023-01-08T06:10:59;8.50;99.90
38500;DHT22;24269;51.894;4.622;2023-01-08T06:13:25;8.50;99.90
38500;DHT22;24269;51.894;4.622;2023-01-08T06:15:51;8.50;99.90
38500;DHT22;24269;51.894;4.622;2023-01-08T06:18:16;8.50;99.90
38500;DHT22;24269;51.894;4.622;2023-01-08T06:20:42;8.50;99.90
38500;DHT22;24269;51.894;4.622;2023-01-08T06:23:08;8.50;99.90
38500;DHT22;24269;51.894;4.622;2023-01-08T06:25:34;8.50;99.90
38500;DHT22;24269;51.894;4.622;2023-01-08T06:28:00;8.50;99.90
38500;DHT22;24269;51.894;4.622;2023-01-08T06:30:25;8.50;99.90
38500;DHT22;24269;51.894;4.622;2023-01-08T06:32:58;8.40;99.90
38500;DHT22;24269;51.894;4.622;2023-01-08T06:35:25;8.40;99.90
38500;DHT22;24269;51.894;4.622;2023-01-08T06:37:51;8.40;99.90
38500;DHT22;24269;51.894;4.622;2023-01-08T06:40:16;8.40;99.90
38500;DHT22;24269;51.894;4.622;2023-01-08T06:42:42;8.40;99.90
38500;DHT22;24269;51.894;4.622;2023-01-08T06:45:09;8.40;99.90
38500;DHT22;24269;51.894;4.622;2023-01-08T06:47:35;8.40;99.90
38500;DHT22;24269;51.894;4.622;2023-01-08T06:50:00;8.40;99.90
38500;DHT22;24269;51.894;4.622;2023-01-08T06:52:26;8.40;99.90
38500;DHT22;24269;51.894;4.622;2023-01-08T06:54:51;8.40;99.90
38500;DHT22;24269;51.894;4.622;2023-01-08T06:57:17;8.30;99.90
38500;DHT22;24269;51.894;4.622;2023-01-08T06:59:43;8.40;99.90
38500;DHT22;24269;51.894;4.622;2023-01-08T07:02:16;8.30;99.90
38500;DHT22;24269;51.894;4.622;2023-01-08T07:04:42;8.30;99.90
38500;DHT22;24269;51.894;4.622;2023-01-08T07:07:09;8.30;99.90
38500;DHT22;24269;51.894;4.622;2023-01-08T07:09:36;8.30;99.90
38500;DHT22;24269;51.894;4.622;2023-01-08T07:12:01;8.30;99.90
38500;DHT22;24269;51.894;4.622;2023-01-08T07:14:27;8.30;99.90
38500;DHT22;24269;51.894;4.622;2023-01-08T07:16:53;8.20;99.90
38500;DHT22;24269;51.894;4.622;2023-01-08T07:19:18;8.20;99.90
38500;DHT22;24269;51.894;4.622;2023-01-08T07:21:44;8.20;99.90
38500;DHT22;24269;51.894;4.622;2023-01-08T07:24:09;8.20;99.90
38500;DHT22;24269;51.894;4.622;2023-01-08T07:26:35;8.10;99.90
38500;DHT22;24269;51.894;4.622;2023-01-08T07:29:01;8.10;99.90
38500;DHT22;24269;51.894;4.622;2023-01-08T07:31:27;8.10;99.90
38500;DHT22;24269;51.894;4.622;2023-01-08T07:33:52;8.10;99.90
38500;DHT22;24269;51.894;4.622;2023-01-08T07:36:18;8.10;99.90
38500;DHT22;24269;51.894;4.622;2023-01-08T07:38:50;8.00;99.90
38500;DHT22;24269;51.894;4.622;2023-01-08T07:41:16;8.00;99.90
38500;DHT22;24269;51.894;4.622;2023-01-08T07:43:42;8.00;99.90
38500;DHT22;24269;51.894;4.622;2023-01-08T07:46:08;7.90;99.90
38500;DHT22;24269;51.894;4.622;2023-01-08T07:48:34;7.90;99.90
38500;DHT22;24269;51.894;4.622;2023-01-08T07:51:04;7.90;99.90
38500;DHT22;24269;51.894;4.622;2023-01-08T07:53:30;7.90;99.90
38500;DHT22;24269;51.894;4.622;2023-01-08T07:56:00;7.90;99.90
38500;DHT22;24269;51.894;4.622;2023-01-08T07:58:25;7.90;99.90
38500;DHT22;24269;51.894;4.622;2023-01-08T08:00:51;7.90;99.90
38500;DHT22;24269;51.894;4.622;2023-01-08T08:03:17;7.90;99.90
38500;DHT22;24269;51.894;4.622;2023-01-08T08:05:43;7.90;99.90
38500;DHT22;24269;51.894;4.622;2023-01-08T08:08:09;7.90;99.90
38500;DHT22;24269;51.894;4.622;2023-01-08T08:10:36;7.90;99.90
38500;DHT22;24269;51.894;4.622;2023-01-08T08:13:02;7.90;99.90
38500;DHT22;24269;51.894;4.622;2023-01-08T08:15:28;7.90;99.90
38500;DHT22;24269;51.894;4.622;2023-01-08T08:17:54;7.90;99.90
38500;DHT22;24269;51.894;4.622;2023-01-08T08:20:19;7.90;99.90
38500;DHT22;24269;51.894;4.622;2023-01-08T08:22:45;7.90;99.90
38500;DHT22;24269;51.894;4.622;2023-01-08T08:25:11;8.00;99.90
38500;DHT22;24269;51.894;4.622;2023-01-08T08:27:39;7.90;99.90
38500;DHT22;24269;51.894;4.622;2023-01-08T08:30:06;7.90;99.90
38500;DHT22;24269;51.894;4.622;2023-01-08T08:32:31;7.90;99.90
38500;DHT22;24269;51.894;4.622;2023-01-08T08:34:58;7.90;99.90
38500;DHT22;24269;51.894;4.622;2023-01-08T08:37:23;7.90;99.90
38500;DHT22;24269;51.894;4.622;2023-01-08T08:39:49;7.90;99.90
38500;DHT22;24269;51.894;4.622;2023-01-08T08:42:14;7.90;99.90
38500;DHT22;24269;51.894;4.622;2023-01-08T08:44:40;7.90;99.90
38500;DHT22;24269;51.894;4.622;2023-01-08T08:47:06;7.90;99.90
38500;DHT22;24269;51.894;4.622;2023-01-08T08:49:33;7.90;99.90
38500;DHT22;24269;51.894;4.622;2023-01-08T08:52:01;8.00;99.90
38500;DHT22;24269;51.894;4.622;2023-01-08T08:54:26;8.00;99.90
38500;DHT22;24269;51.894;4.622;2023-01-08T08:56:52;7.90;99.90
38500;DHT22;24269;51.894;4.622;2023-01-08T08:59:17;8.00;99.90
38500;DHT22;24269;51.894;4.622;2023-01-08T09:01:43;8.10;99.90
38500;DHT22;24269;51.894;4.622;2023-01-08T09:04:09;8.10;99.90
38500;DHT22;24269;51.894;4.622;2023-01-08T09:06:34;8.10;99.90
38500;DHT22;24269;51.894;4.622;2023-01-08T09:09:00;8.10;99.90
38500;DHT22;24269;51.894;4.622;2023-01-08T09:11:25;8.20;99.90
38500;DHT22;24269;51.894;4.622;2023-01-08T09:13:51;8.20;99.90
38500;DHT22;24269;51.894;4.622;2023-01-08T09:16:16;8.20;99.90
38500;DHT22;24269;51.894;4.622;2023-01-08T09:18:42;8.30;99.90
38500;DHT22;24269;51.894;4.622;2023-01-08T09:21:09;8.30;99.90
38500;DHT22;24269;51.894;4.622;2023-01-08T09:23:34;8.30;99.90
38500;DHT22;24269;51.894;4.622;2023-01-08T09:26:01;8.40;99.90
38500;DHT22;24269;51.894;4.622;2023-01-08T09:28:28;8.40;99.90
38500;DHT22;24269;51.894;4.622;2023-01-08T09:30:53;8.50;99.90
38500;DHT22;24269;51.894;4.622;2023-01-08T09:33:19;8.50;99.90
38500;DHT22;24269;51.894;4.622;2023-01-08T09:35:44;8.60;99.90
38500;DHT22;24269;51.894;4.622;2023-01-08T09:38:10;8.60;99.90
38500;DHT22;24269;51.894;4.622;2023-01-08T09:40:46;8.60;99.90
38500;DHT22;24269;51.894;4.622;2023-01-08T09:43:20;8.70;99.90
38500;DHT22;24269;51.894;4.622;2023-01-08T09:45:50;8.70;99.90
38500;DHT22;24269;51.894;4.622;2023-01-08T09:48:19;8.80;99.90
38500;DHT22;24269;51.894;4.622;2023-01-08T09:50:47;8.80;99.90
38500;DHT22;24269;51.894;4.622;2023-01-08T09:53:15;8.80;99.90
38500;DHT22;24269;51.894;4.622;2023-01-08T09:55:41;8.80;99.90
38500;DHT22;24269;51.894;4.622;2023-01-08T09:58:34;8.90;99.90
38500;DHT22;24269;51.894;4.622;2023-01-08T10:01:02;9.00;99.90
38500;DHT22;24269;51.894;4.622;2023-01-08T10:03:44;9.00;99.90
38500;DHT22;24269;51.894;4.622;2023-01-08T10:06:13;9.00;99.90
38500;DHT22;24269;51.894;4.622;2023-01-08T10:08:39;9.10;99.90
38500;DHT22;24269;51.894;4.622;2023-01-08T10:11:06;9.20;99.90
38500;DHT22;24269;51.894;4.622;2023-01-08T10:13:38;9.20;99.90
38500;DHT22;24269;51.894;4.622;2023-01-08T10:16:08;9.30;99.90
38500;DHT22;24269;51.894;4.622;2023-01-08T10:18:36;9.30;99.90
38500;DHT22;24269;51.894;4.622;2023-01-08T10:21:02;9.30;99.90
38500;DHT22;24269;51.894;4.622;2023-01-08T10:23:28;9.40;99.90
38500;DHT22;24269;51.894;4.622;2023-01-08T10:25:56;9.50;99.90
38500;DHT22;24269;51.894;4.622;2023-01-08T10:28:28;9.60;99.90
38500;DHT22;24269;51.894;4.622;2023-01-08T10:31:08;9.60;99.90
38500;DHT22;24269;51.894;4.622;2023-01-08T10:33:41;9.70;99.90
38500;DHT22;24269;51.894;4.622;2023-01-08T10:36:18;9.90;99.90
38500;DHT22;24269;51.894;4.622;2023-01-08T10:38:48;10.00;99.90
38500;DHT22;24269;51.894;4.622;2023-01-08T10:41:14;10.30;99.90
38500;DHT22;24269;51.894;4.622;2023-01-08T10:43:54;10.40;99.90
38500;DHT22;24269;51.894;4.622;2023-01-08T10:46:26;10.50;99.90
38500;DHT22;24269;51.894;4.622;2023-01-08T10:48:55;10.50;99.90
38500;DHT22;24269;51.894;4.622;2023-01-08T10:51:27;10.50;99.90
38500;DHT22;24269;51.894;4.622;2023-01-08T10:53:55;10.60;99.90
38500;DHT22;24269;51.894;4.622;2023-01-08T10:56:25;10.70;99.90
38500;DHT22;24269;51.894;4.622;2023-01-08T10:58:51;10.80;99.90
38500;DHT22;24269;51.894;4.622;2023-01-08T11:01:28;10.80;99.90
38500;DHT22;24269;51.894;4.622;2023-01-08T11:03:55;10.80;99.90
38500;DHT22;24269;51.894;4.622;2023-01-08T11:06:24;10.90;99.90
38500;DHT22;24269;51.894;4.622;2023-01-08T11:09:18;11.00;99.90
38500;DHT22;24269;51.894;4.622;2023-01-08T11:11:45;11.10;99.90
38500;DHT22;24269;51.894;4.622;2023-01-08T11:14:32;11.40;99.90
38500;DHT22;24269;51.894;4.622;2023-01-08T11:17:09;11.40;99.90
38500;DHT22;24269;51.894;4.622;2023-01-08T11:19:36;11.30;99.90
38500;DHT22;24269;51.894;4.622;2023-01-08T11:22:04;11.20;99.90
38500;DHT22;24269;51.894;4.622;2023-01-08T11:24:32;11.10;99.90
38500;DHT22;24269;51.894;4.622;2023-01-08T11:27:08;11.00;99.90
38500;DHT22;24269;51.894;4.622;2023-01-08T11:37:59;10.70;99.90
38500;DHT22;24269;51.894;4.622;2023-01-08T12:07:18;10.80;99.90
38500;DHT22;24269;51.894;4.622;2023-01-08T12:09:47;11.00;99.90
38500;DHT22;24269;51.894;4.622;2023-01-08T12:12:37;11.10;99.90
38500;DHT22;24269;51.894;4.622;2023-01-08T12:17:58;11.20;99.90
38500;DHT22;24269;51.894;4.622;2023-01-08T12:34:20;11.10;99.90
38500;DHT22;24269;51.894;4.622;2023-01-08T12:36:52;11.10;99.90
38500;DHT22;24269;51.894;4.622;2023-01-08T12:39:46;10.90;99.90
38500;DHT22;24269;51.894;4.622;2023-01-08T12:42:18;10.90;99.90
38500;DHT22;24269;51.894;4.622;2023-01-08T12:44:51;10.80;99.90
38500;DHT22;24269;51.894;4.622;2023-01-08T12:47:21;10.80;99.90
38500;DHT22;24269;51.894;4.622;2023-01-08T12:53:22;10.90;99.90
38500;DHT22;24269;51.894;4.622;2023-01-08T12:55:58;10.80;99.90
38500;DHT22;24269;51.894;4.622;2023-01-08T12:58:31;10.70;99.90
38500;DHT22;24269;51.894;4.622;2023-01-08T13:03:39;10.60;99.90
38500;DHT22;24269;51.894;4.622;2023-01-08T13:06:07;10.50;99.90
38500;DHT22;24269;51.894;4.622;2023-01-08T13:08:36;10.50;99.90
38500;DHT22;24269;51.894;4.622;2023-01-08T13:11:02;10.50;99.90
38500;DHT22;24269;51.894;4.622;2023-01-08T13:18:34;10.50;99.90
38500;DHT22;24269;51.894;4.622;2023-01-08T13:21:01;10.50;99.90
38500;DHT22;24269;51.894;4.622;2023-01-08T13:23:30;10.50;99.90
38500;DHT22;24269;51.894;4.622;2023-01-08T13:26:00;10.50;99.90
38500;DHT22;24269;51.894;4.622;2023-01-08T13:28:41;10.50;99.90
38500;DHT22;24269;51.894;4.622;2023-01-08T13:36:16;10.50;99.90
38500;DHT22;24269;51.894;4.622;2023-01-08T13:38:43;10.50;99.90
38500;DHT22;24269;51.894;4.622;2023-01-08T13:41:30;10.50;99.90
38500;DHT22;24269;51.894;4.622;2023-01-08T13:43:59;10.50;99.90
38500;DHT22;24269;51.894;4.622;2023-01-08T13:46:26;10.50;99.90
38500;DHT22;24269;51.894;4.622;2023-01-08T13:49:04;10.40;99.90
38500;DHT22;24269;51.894;4.622;2023-01-08T13:56:40;10.50;99.90
38500;DHT22;24269;51.894;4.622;2023-01-08T14:02:02;10.50;99.90
38500;DHT22;24269;51.894;4.622;2023-01-08T14:04:28;10.50;99.90
38500;DHT22;24269;51.894;4.622;2023-01-08T14:07:09;10.40;99.90
38500;DHT22;24269;51.894;4.622;2023-01-08T14:09:36;10.40;99.90
38500;DHT22;24269;51.894;4.622;2023-01-08T14:12:02;10.30;99.90
38500;DHT22;24269;51.894;4.622;2023-01-08T14:14:28;10.30;99.90
38500;DHT22;24269;51.894;4.622;2023-01-08T14:16:54;10.30;99.90
38500;DHT22;24269;51.894;4.622;2023-01-08T14:19:23;10.30;99.90
38500;DHT22;24269;51.894;4.622;2023-01-08T14:21:51;10.20;99.90
38500;DHT22;24269;51.894;4.622;2023-01-08T14:24:18;10.20;99.90
38500;DHT22;24269;51.894;4.622;2023-01-08T14:26:54;10.20;99.90
38500;DHT22;24269;51.894;4.622;2023-01-08T14:29:26;10.20;99.90
38500;DHT22;24269;51.894;4.622;2023-01-08T14:31:56;10.20;99.90
38500;DHT22;24269;51.894;4.622;2023-01-08T14:34:24;10.20;99.90
38500;DHT22;24269;51.894;4.622;2023-01-08T14:36:52;10.20;99.90
38500;DHT22;24269;51.894;4.622;2023-01-08T14:39:32;10.30;99.90
38500;DHT22;24269;51.894;4.622;2023-01-08T14:42:04;10.20;99.90
38500;DHT22;24269;51.894;4.622;2023-01-08T14:44:57;10.20;99.90
38500;DHT22;24269;51.894;4.622;2023-01-08T14:47:28;10.20;99.90
38500;DHT22;24269;51.894;4.622;2023-01-08T14:49:55;10.20;99.90
38500;DHT22;24269;51.894;4.622;2023-01-08T14:52:21;10.20;99.90
38500;DHT22;24269;51.894;4.622;2023-01-08T14:54:50;10.20;99.90
38500;DHT22;24269;51.894;4.622;2023-01-08T14:57:18;10.20;99.90
38500;DHT22;24269;51.894;4.622;2023-01-08T14:59:51;10.20;99.90
38500;DHT22;24269;51.894;4.622;2023-01-08T15:02:24;10.20;99.90
38500;DHT22;24269;51.894;4.622;2023-01-08T15:05:00;10.10;99.90
38500;DHT22;24269;51.894;4.622;2023-01-08T15:07:26;10.10;99.90
38500;DHT22;24269;51.894;4.622;2023-01-08T15:09:59;10.10;99.90
38500;DHT22;24269;51.894;4.622;2023-01-08T15:12:29;10.00;99.90
38500;DHT22;24269;51.894;4.622;2023-01-08T15:15:08;10.00;99.90
38500;DHT22;24269;51.894;4.622;2023-01-08T15:17:34;10.00;99.90
38500;DHT22;24269;51.894;4.622;2023-01-08T15:19:59;10.00;99.90
38500;DHT22;24269;51.894;4.622;2023-01-08T15:22:27;10.00;99.90
38500;DHT22;24269;51.894;4.622;2023-01-08T15:24:57;9.90;99.90
38500;DHT22;24269;51.894;4.622;2023-01-08T15:27:24;9.90;99.90
38500;DHT22;24269;51.894;4.622;2023-01-08T15:29:52;9.90;99.90
38500;DHT22;24269;51.894;4.622;2023-01-08T15:32:27;9.90;99.90
38500;DHT22;24269;51.894;4.622;2023-01-08T15:34:55;9.80;99.90
38500;DHT22;24269;51.894;4.622;2023-01-08T15:37:21;9.80;99.90
38500;DHT22;24269;51.894;4.622;2023-01-08T15:39:46;9.80;99.90
38500;DHT22;24269;51.894;4.622;2023-01-08T15:42:20;9.80;99.90
38500;DHT22;24269;51.894;4.622;2023-01-08T15:45:11;9.70;99.90
38500;DHT22;24269;51.894;4.622;2023-01-08T15:47:37;9.70;99.90
38500;DHT22;24269;51.894;4.622;2023-01-08T15:50:03;9.70;99.90
38500;DHT22;24269;51.894;4.622;2023-01-08T15:52:30;9.60;99.90
38500;DHT22;24269;51.894;4.622;2023-01-08T15:55:00;9.60;99.90
38500;DHT22;24269;51.894;4.622;2023-01-08T15:57:26;9.70;99.90
38500;DHT22;24269;51.894;4.622;2023-01-08T15:59:54;9.60;99.90
38500;DHT22;24269;51.894;4.622;2023-01-08T16:02:20;9.60;99.90
38500;DHT22;24269;51.894;4.622;2023-01-08T16:04:54;9.60;99.90
38500;DHT22;24269;51.894;4.622;2023-01-08T16:07:20;9.60;99.90
38500;DHT22;24269;51.894;4.622;2023-01-08T16:09:46;9.60;99.90
38500;DHT22;24269;51.894;4.622;2023-01-08T16:12:12;9.60;99.90
38500;DHT22;24269;51.894;4.622;2023-01-08T16:14:38;9.70;99.90
38500;DHT22;24269;51.894;4.622;2023-01-08T16:17:05;9.70;99.90
38500;DHT22;24269;51.894;4.622;2023-01-08T16:19:31;9.70;99.90
38500;DHT22;24269;51.894;4.622;2023-01-08T16:21:57;9.70;99.90
38500;DHT22;24269;51.894;4.622;2023-01-08T16:24:24;9.80;99.90
38500;DHT22;24269;51.894;4.622;2023-01-08T16:26:49;9.80;99.90
38500;DHT22;24269;51.894;4.622;2023-01-08T16:29:16;9.80;99.90
38500;DHT22;24269;51.894;4.622;2023-01-08T16:31:44;9.80;99.90
38500;DHT22;24269;51.894;4.622;2023-01-08T16:34:09;9.90;99.90
38500;DHT22;24269;51.894;4.622;2023-01-08T16:36:35;9.90;99.90
38500;DHT22;24269;51.894;4.622;2023-01-08T16:39:01;9.90;99.90
38500;DHT22;24269;51.894;4.622;2023-01-08T16:41:27;9.90;99.90
38500;DHT22;24269;51.894;4.622;2023-01-08T16:43:52;9.90;99.90
38500;DHT22;24269;51.894;4.622;2023-01-08T16:46:18;9.90;99.90
38500;DHT22;24269;51.894;4.622;2023-01-08T16:48:43;9.90;99.90
38500;DHT22;24269;51.894;4.622;2023-01-08T16:51:11;9.90;99.90
38500;DHT22;24269;51.894;4.622;2023-01-08T16:53:37;9.90;99.90
38500;DHT22;24269;51.894;4.622;2023-01-08T16:56:03;9.90;99.90
38500;DHT22;24269;51.894;4.622;2023-01-08T16:58:29;9.90;99.90
38500;DHT22;24269;51.894;4.622;2023-01-08T17:00:56;9.90;99.90
38500;DHT22;24269;51.894;4.622;2023-01-08T17:03:22;9.90;99.90
38500;DHT22;24269;51.894;4.622;2023-01-08T17:05:48;9.90;99.90
38500;DHT22;24269;51.894;4.622;2023-01-08T17:08:13;9.90;99.90
38500;DHT22;24269;51.894;4.622;2023-01-08T17:10:41;9.90;99.90
38500;DHT22;24269;51.894;4.622;2023-01-08T17:13:06;9.90;99.90
38500;DHT22;24269;51.894;4.622;2023-01-08T17:15:32;9.90;99.90